createdAt,value
2023-04-17T00:01:49.371Z,99.80
2023-04-17T00:04:18.413Z,99.80
2023-04-17T00:06:46.939Z,99.80
2023-04-17T00:09:15.212Z,99.80
2023-04-17T00:11:43.489Z,99.80
2023-04-17T00:14:11.863Z,99.80
2023-04-17T00:16:41.567Z,99.80
2023-04-17T00:19:09.973Z,99.80
2023-04-17T00:21:38.449Z,99.80
2023-04-17T00:24:07.197Z,99.70
2023-04-17T00:26:35.490Z,99.70
2023-04-17T00:29:03.845Z,99.60
2023-04-17T00:31:32.414Z,99.60
2023-04-17T00:34:02.351Z,99.60
2023-04-17T00:36:31.969Z,99.60
2023-04-17T00:39:00.630Z,99.60
2023-04-17T00:41:29.081Z,99.50
2023-04-17T00:43:57.372Z,99.50
2023-04-17T00:46:26.000Z,99.50
2023-04-17T00:48:54.468Z,99.60
2023-04-17T00:51:24.122Z,99.50
2023-04-17T00:53:53.192Z,99.50
2023-04-17T00:56:22.204Z,99.50
2023-04-17T00:58:51.101Z,99.40
2023-04-17T01:01:19.345Z,99.50
2023-04-17T01:03:48.159Z,99.50
2023-04-17T01:06:17.160Z,99.50
2023-04-17T01:08:46.800Z,99.50
2023-04-17T01:11:15.162Z,99.50
2023-04-17T01:13:47.371Z,99.50
2023-04-17T01:16:16.387Z,99.50
2023-04-17T01:18:45.051Z,99.60
2023-04-17T01:21:13.322Z,99.60
2023-04-17T01:23:48.788Z,99.60
2023-04-17T01:26:21.194Z,99.50
2023-04-17T01:28:54.380Z,99.40
2023-04-17T01:31:23.349Z,99.40
2023-04-17T01:33:52.889Z,99.40
2023-04-17T01:36:21.543Z,99.30
2023-04-17T01:38:49.796Z,99.30
2023-04-17T01:41:19.479Z,99.10
2023-04-17T01:43:48.759Z,99.10
2023-04-17T01:46:17.067Z,99.30
2023-04-17T01:48:45.393Z,99.40
2023-04-17T01:51:13.734Z,99.40
2023-04-17T01:53:42.212Z,99.40
2023-04-17T01:56:10.531Z,99.40
2023-04-17T01:58:40.378Z,99.40
2023-04-17T02:01:08.726Z,99.50
2023-04-17T02:03:37.104Z,99.50
2023-04-17T02:06:05.663Z,99.50
2023-04-17T02:08:34.538Z,99.60
2023-04-17T02:11:04.984Z,99.60
2023-04-17T02:13:33.398Z,99.60
2023-04-17T02:16:03.117Z,99.70
2023-04-17T02:18:31.617Z,99.80
2023-04-17T02:21:01.825Z,99.80
2023-04-17T02:23:30.343Z,99.90
2023-04-17T02:25:58.712Z,99.90
2023-04-17T02:28:27.027Z,99.80
2023-04-17T02:30:55.336Z,99.90
2023-04-17T02:33:25.142Z,99.90
2023-04-17T02:35:54.038Z,99.80
2023-04-17T02:38:30.055Z,99.90
2023-04-17T02:40:58.546Z,99.80
2023-04-17T02:43:27.871Z,99.80
2023-04-17T02:45:57.227Z,99.90
2023-04-17T02:48:28.589Z,99.90
2023-04-17T02:50:57.193Z,99.90
2023-04-17T02:53:25.597Z,99.90
2023-04-17T02:55:54.208Z,99.90
2023-04-17T02:58:24.954Z,99.90
2023-04-17T03:00:53.459Z,99.90
2023-04-17T03:03:21.964Z,99.90
2023-04-17T03:05:51.792Z,99.90
2023-04-17T03:08:20.726Z,99.90
2023-04-17T03:10:50.876Z,99.90
2023-04-17T03:13:19.222Z,99.90
2023-04-17T03:15:47.763Z,99.90
2023-04-17T03:18:16.193Z,99.90
2023-04-17T03:20:44.447Z,99.90
2023-04-17T03:23:14.136Z,99.90
2023-04-17T03:25:44.209Z,99.90
2023-04-17T03:28:13.084Z,99.90
2023-04-17T03:30:41.400Z,99.90
2023-04-17T03:33:10.568Z,99.90
2023-04-17T03:35:38.819Z,99.90
2023-04-17T03:38:09.958Z,99.90
2023-04-17T03:40:39.727Z,99.90
2023-04-17T03:43:07.963Z,99.90
2023-04-17T03:45:36.514Z,99.90
2023-04-17T03:48:05.936Z,99.90
2023-04-17T03:50:35.147Z,99.90
2023-04-17T03:53:03.432Z,99.90
2023-04-17T03:55:33.140Z,99.90
2023-04-17T03:58:02.812Z,99.90
2023-04-17T04:00:32.921Z,99.90
2023-04-17T04:03:07.933Z,99.90
2023-04-17T04:05:40.902Z,99.90
2023-04-17T04:08:10.815Z,99.90
2023-04-17T04:10:50.212Z,99.90
2023-04-17T04:13:25.486Z,99.90
2023-04-17T04:15:58.239Z,99.90
2023-04-17T04:18:28.939Z,99.90
2023-04-17T04:20:57.194Z,99.90
2023-04-17T04:23:30.616Z,99.90
2023-04-17T04:26:01.795Z,99.90
2023-04-17T04:28:39.441Z,99.90
2023-04-17T04:31:14.709Z,99.90
2023-04-17T04:33:45.173Z,99.90
2023-04-17T04:36:20.236Z,99.90
2023-04-17T04:38:52.389Z,99.90
2023-04-17T04:41:29.918Z,99.90
2023-04-17T04:43:59.944Z,99.90
2023-04-17T04:46:29.047Z,99.90
2023-04-17T04:48:58.278Z,99.90
2023-04-17T04:51:27.784Z,99.90
2023-04-17T04:53:56.712Z,99.90
2023-04-17T04:56:25.714Z,99.90
2023-04-17T04:58:56.399Z,99.90
2023-04-17T05:01:27.995Z,99.90
2023-04-17T05:03:57.760Z,99.90
2023-04-17T05:06:30.178Z,99.90
2023-04-17T05:09:04.427Z,99.90
2023-04-17T05:11:34.443Z,99.90
2023-04-17T05:14:03.188Z,99.90
2023-04-17T05:16:38.201Z,99.90
2023-04-17T05:19:06.679Z,99.90
2023-04-17T05:21:53.974Z,99.90
2023-04-17T05:24:23.150Z,99.90
2023-04-17T05:26:51.778Z,99.90
2023-04-17T05:29:20.175Z,99.90
2023-04-17T05:31:49.942Z,99.90
2023-04-17T05:34:50.351Z,99.90
2023-04-17T05:37:22.291Z,99.90
2023-04-17T05:39:50.654Z,99.90
2023-04-17T05:42:18.980Z,99.90
2023-04-17T05:44:47.696Z,99.90
2023-04-17T05:47:17.571Z,99.90
2023-04-17T05:49:45.931Z,99.90
2023-04-17T05:52:15.063Z,99.90
2023-04-17T05:54:45.923Z,99.90
2023-04-17T05:57:14.397Z,99.90
2023-04-17T05:59:43.219Z,99.90
2023-04-17T06:02:12.584Z,99.90
2023-04-17T06:04:42.563Z,99.90
2023-04-17T06:07:11.854Z,99.90
2023-04-17T06:09:41.133Z,99.90
2023-04-17T06:12:15.802Z,99.90
2023-04-17T06:14:45.581Z,99.90
2023-04-17T06:17:15.659Z,99.90
2023-04-17T06:19:45.576Z,99.90
2023-04-17T06:22:13.888Z,99.90
2023-04-17T06:24:42.066Z,99.90
2023-04-17T06:27:10.588Z,99.90
2023-04-17T06:29:39.000Z,99.90
2023-04-17T06:32:07.657Z,99.90
2023-04-17T06:34:46.098Z,99.90
2023-04-17T06:37:35.434Z,99.90
2023-04-17T06:40:03.930Z,99.90
2023-04-17T06:42:33.987Z,99.90
2023-04-17T06:45:03.860Z,99.90
2023-04-17T06:47:32.169Z,99.90
2023-04-17T06:50:00.930Z,99.90
2023-04-17T06:52:29.266Z,99.90
2023-04-17T06:55:00.679Z,99.90
2023-04-17T06:57:29.196Z,99.90
2023-04-17T06:59:57.405Z,99.90
2023-04-17T07:02:25.784Z,99.90
2023-04-17T07:04:54.961Z,99.90
2023-04-17T07:07:23.453Z,99.90
2023-04-17T07:09:52.039Z,99.90
2023-04-17T07:12:22.745Z,99.90
2023-04-17T07:14:51.271Z,99.90
2023-04-17T07:17:19.776Z,99.90
2023-04-17T07:19:48.061Z,99.90
2023-04-17T07:22:16.343Z,99.90
2023-04-17T07:24:45.303Z,99.90
2023-04-17T07:27:13.610Z,99.90
2023-04-17T07:29:43.433Z,99.90
2023-04-17T07:32:12.701Z,99.90
2023-04-17T07:34:42.142Z,99.90
2023-04-17T07:37:10.568Z,99.90
2023-04-17T07:39:39.097Z,99.90
2023-04-17T07:42:09.125Z,99.90
2023-04-17T07:44:37.514Z,99.90
2023-04-17T07:47:07.194Z,99.90
2023-04-17T07:49:35.618Z,99.90
2023-04-17T07:52:03.944Z,99.90
2023-04-17T07:54:32.513Z,99.90
2023-04-17T07:57:03.551Z,99.90
2023-04-17T07:59:31.885Z,99.90
2023-04-17T08:02:00.236Z,99.90
2023-04-17T08:04:30.257Z,99.90
2023-04-17T08:06:58.655Z,99.90
2023-04-17T08:09:27.025Z,99.90
2023-04-17T08:11:57.966Z,99.90
2023-04-17T08:14:26.711Z,99.90
2023-04-17T08:16:55.285Z,99.90
2023-04-17T08:19:23.569Z,99.90
2023-04-17T08:22:03.725Z,99.90
2023-04-17T08:24:32.516Z,99.90
2023-04-17T08:27:01.552Z,99.90
2023-04-17T08:29:30.043Z,99.90
2023-04-17T08:32:13.126Z,99.90
2023-04-17T08:34:42.730Z,99.90
2023-04-17T08:37:12.276Z,99.90
2023-04-17T08:39:40.551Z,99.90
2023-04-17T08:42:14.623Z,99.90
2023-04-17T08:44:46.097Z,99.90
2023-04-17T08:47:14.665Z,99.90
2023-04-17T08:49:44.097Z,99.90
2023-04-17T08:52:14.550Z,99.90
2023-04-17T08:54:42.909Z,99.90
2023-04-17T08:57:11.216Z,99.90
2023-04-17T08:59:39.486Z,99.90
2023-04-17T09:02:08.731Z,99.90
2023-04-17T09:04:40.883Z,99.90
2023-04-17T09:07:10.629Z,99.90
2023-04-17T09:09:51.462Z,99.90
2023-04-17T09:12:20.868Z,99.90
2023-04-17T09:14:49.438Z,99.90
2023-04-17T09:17:19.176Z,99.90
2023-04-17T09:20:06.541Z,99.90
2023-04-17T09:22:35.590Z,99.90
2023-04-17T09:25:05.872Z,99.90
2023-04-17T09:27:34.138Z,99.90
2023-04-17T09:30:03.837Z,99.90
2023-04-17T09:32:33.364Z,99.90
2023-04-17T09:35:03.827Z,99.90
2023-04-17T09:37:50.664Z,99.90
2023-04-17T09:40:21.491Z,99.90
2023-04-17T09:42:57.394Z,99.90
2023-04-17T09:45:33.153Z,99.90
2023-04-17T09:48:01.659Z,99.90
2023-04-17T09:50:31.272Z,99.90
2023-04-17T09:52:59.529Z,99.90
2023-04-17T09:55:30.217Z,99.90
2023-04-17T09:57:59.857Z,99.90
2023-04-17T10:00:29.400Z,99.90
2023-04-17T10:02:59.754Z,99.90
2023-04-17T10:05:30.149Z,99.90
2023-04-17T10:07:58.886Z,99.90
2023-04-17T10:10:31.136Z,99.90
2023-04-17T10:13:01.633Z,99.90
2023-04-17T10:15:31.583Z,99.90
2023-04-17T10:18:21.420Z,99.90
2023-04-17T10:20:50.757Z,99.90
2023-04-17T10:23:33.834Z,99.90
2023-04-17T10:26:43.524Z,99.90
2023-04-17T10:29:13.704Z,99.90
2023-04-17T10:32:17.475Z,99.90
2023-04-17T10:34:46.257Z,99.90
2023-04-17T10:37:16.187Z,99.90
2023-04-17T10:39:57.796Z,99.90
2023-04-17T10:42:28.014Z,99.90
2023-04-17T10:45:01.862Z,99.90
2023-04-17T10:47:34.735Z,99.90
2023-04-17T10:50:05.496Z,99.90
2023-04-17T10:52:42.018Z,99.90
2023-04-17T10:55:14.267Z,99.90
2023-04-17T10:58:01.118Z,99.90
2023-04-17T11:00:33.513Z,99.90
2023-04-17T11:03:03.914Z,99.90
2023-04-17T11:05:32.782Z,99.90
2023-04-17T11:08:01.131Z,99.90
2023-04-17T11:10:29.707Z,99.90
2023-04-17T11:12:57.933Z,99.90
2023-04-17T11:15:31.574Z,99.90
2023-04-17T11:18:01.106Z,99.90
2023-04-17T11:20:31.360Z,99.90
2023-04-17T11:23:02.336Z,99.90
2023-04-17T11:25:33.695Z,99.90
2023-04-17T11:28:03.155Z,99.90
2023-04-17T11:30:34.811Z,99.90
2023-04-17T11:33:05.223Z,99.90
2023-04-17T11:35:34.613Z,99.90
2023-04-17T11:38:14.392Z,99.90
2023-04-17T11:40:47.305Z,99.90
2023-04-17T11:43:16.349Z,99.90
2023-04-17T11:45:47.765Z,99.90
2023-04-17T11:48:19.663Z,99.90
2023-04-17T11:50:47.896Z,99.90
2023-04-17T11:53:17.185Z,99.90
2023-04-17T11:55:46.176Z,99.90
2023-04-17T11:58:15.362Z,99.90
2023-04-17T12:01:04.810Z,99.90
2023-04-17T12:03:35.532Z,99.90
2023-04-17T12:06:05.407Z,99.90
2023-04-17T12:08:44.053Z,99.90
2023-04-17T12:11:18.069Z,99.90
2023-04-17T12:13:47.298Z,99.90
2023-04-17T12:16:17.078Z,99.90
2023-04-17T12:18:45.930Z,99.90
2023-04-17T12:21:14.291Z,99.90
2023-04-17T12:23:43.076Z,99.90
2023-04-17T12:26:11.653Z,99.90
2023-04-17T12:28:40.022Z,99.90
2023-04-17T12:31:08.501Z,99.90
2023-04-17T12:33:38.319Z,99.90
2023-04-17T12:36:07.675Z,99.90
2023-04-17T12:38:36.119Z,99.90
2023-04-17T12:41:06.750Z,99.90
2023-04-17T12:43:35.316Z,99.90
2023-04-17T12:46:04.277Z,99.90
2023-04-17T12:48:33.124Z,99.90
2023-04-17T12:51:02.866Z,99.90
2023-04-17T12:53:31.191Z,99.90
2023-04-17T12:55:59.396Z,99.90
2023-04-17T12:58:27.676Z,99.90
2023-04-17T13:00:56.041Z,99.90
2023-04-17T13:03:24.433Z,99.90
2023-04-17T13:05:53.592Z,99.90
2023-04-17T13:08:23.344Z,99.90
2023-04-17T13:10:51.667Z,99.90
2023-04-17T13:13:19.964Z,99.90
2023-04-17T13:15:49.357Z,99.90
2023-04-17T13:18:17.705Z,99.90
2023-04-17T13:20:45.922Z,99.90
2023-04-17T13:23:14.545Z,99.90
2023-04-17T13:25:44.240Z,99.90
2023-04-17T13:28:12.491Z,99.90
2023-04-17T13:30:40.834Z,99.90
2023-04-17T13:33:09.265Z,99.90
2023-04-17T13:35:37.766Z,99.90
2023-04-17T13:38:06.143Z,99.90
2023-04-17T13:40:34.349Z,99.90
2023-04-17T13:43:05.983Z,99.90
2023-04-17T13:45:34.013Z,99.90
2023-04-17T13:48:02.595Z,99.90
2023-04-17T13:50:31.445Z,99.90
2023-04-17T13:52:59.739Z,99.90
2023-04-17T13:55:28.098Z,99.90
2023-04-17T13:57:56.383Z,99.90
2023-04-17T14:00:26.062Z,99.90
2023-04-17T14:02:54.683Z,99.90
2023-04-17T14:05:23.269Z,99.90
2023-04-17T14:07:51.532Z,99.90
2023-04-17T14:10:19.802Z,99.90
2023-04-17T14:12:48.067Z,99.90
2023-04-17T14:15:16.350Z,99.90
2023-04-17T14:17:46.177Z,99.90
2023-04-17T14:20:16.758Z,99.90
2023-04-17T14:22:45.574Z,99.90
2023-04-17T14:25:13.830Z,99.90
2023-04-17T14:27:42.354Z,99.90
2023-04-17T14:30:11.245Z,99.90
2023-04-17T14:32:39.925Z,99.90
2023-04-17T14:35:10.536Z,99.90
2023-04-17T14:37:38.929Z,99.90
2023-04-17T14:40:09.034Z,99.90
2023-04-17T14:42:47.387Z,99.90
2023-04-17T14:45:21.731Z,99.90
2023-04-17T14:47:50.125Z,99.90
2023-04-17T14:50:19.921Z,99.90
2023-04-17T14:52:48.293Z,99.90
2023-04-17T14:55:16.670Z,99.90
2023-04-17T14:57:45.091Z,99.90
2023-04-17T15:00:14.398Z,99.90
2023-04-17T15:02:42.824Z,99.90
2023-04-17T15:05:11.582Z,99.90
2023-04-17T15:07:41.157Z,99.90
2023-04-17T15:10:10.200Z,99.90
2023-04-17T15:12:38.447Z,99.90
2023-04-17T15:15:09.367Z,99.90
2023-04-17T15:17:38.304Z,99.90
2023-04-17T15:20:07.881Z,99.90
2023-04-17T15:22:36.277Z,99.90
2023-04-17T15:25:06.768Z,99.90
2023-04-17T15:27:35.086Z,99.90
2023-04-17T15:30:04.975Z,99.90
2023-04-17T15:32:33.509Z,99.90
2023-04-17T15:35:01.899Z,99.90
2023-04-17T15:37:30.488Z,99.90
2023-04-17T15:39:58.794Z,99.90
2023-04-17T15:42:28.481Z,99.90
2023-04-17T15:44:57.626Z,99.90
2023-04-17T15:47:25.892Z,99.90
2023-04-17T15:49:54.163Z,99.90
2023-04-17T15:52:22.442Z,99.90
2023-04-17T15:54:50.697Z,99.90
2023-04-17T15:57:18.902Z,99.90
2023-04-17T15:59:48.836Z,99.90
2023-04-17T16:02:17.326Z,99.90
2023-04-17T16:04:45.818Z,99.90
2023-04-17T16:07:14.233Z,99.90
2023-04-17T16:09:44.637Z,99.90
2023-04-17T16:12:13.216Z,99.90
2023-04-17T16:14:41.427Z,99.90
2023-04-17T16:17:11.023Z,99.90
2023-04-17T16:19:39.284Z,99.90
2023-04-17T16:22:07.488Z,99.90
2023-04-17T16:24:35.818Z,99.90
2023-04-17T16:27:04.389Z,99.90
2023-04-17T16:29:32.630Z,99.90
2023-04-17T16:32:00.910Z,99.90
2023-04-17T16:34:30.621Z,99.90
2023-04-17T16:36:58.820Z,99.90
2023-04-17T16:39:27.110Z,99.90
2023-04-17T16:41:56.267Z,99.90
2023-04-17T16:44:25.901Z,99.90
2023-04-17T16:47:12.102Z,99.90
2023-04-17T16:49:43.423Z,99.90
2023-04-17T16:52:11.775Z,99.90
2023-04-17T16:54:40.048Z,99.90
2023-04-17T16:57:08.631Z,99.90
2023-04-17T16:59:36.906Z,99.90
2023-04-17T17:02:05.243Z,99.90
2023-04-17T17:04:33.744Z,99.90
2023-04-17T17:07:03.489Z,99.90
2023-04-17T17:09:31.761Z,99.90
2023-04-17T17:12:00.797Z,99.90
2023-04-17T17:14:29.150Z,99.90
2023-04-17T17:16:57.471Z,99.90
2023-04-17T17:19:25.801Z,99.90
2023-04-17T17:21:55.203Z,99.90
2023-04-17T17:24:24.907Z,99.90
2023-04-17T17:26:53.213Z,99.90
2023-04-17T17:29:21.476Z,99.90
2023-04-17T17:31:49.733Z,99.90
2023-04-17T17:34:25.947Z,99.90
2023-04-17T17:36:54.756Z,99.90
2023-04-17T17:39:24.466Z,99.90
2023-04-17T17:41:52.750Z,99.90
2023-04-17T17:44:21.030Z,99.90
2023-04-17T17:46:49.264Z,99.90
2023-04-17T17:49:17.498Z,99.90
2023-04-17T17:51:45.794Z,99.90
2023-04-17T17:54:14.265Z,99.90
2023-04-17T17:56:44.095Z,99.90
2023-04-17T17:59:12.776Z,99.90
2023-04-17T18:01:41.382Z,99.90
2023-04-17T18:04:10.131Z,99.90
2023-04-17T18:06:39.547Z,99.90
2023-04-17T18:09:07.871Z,99.90
2023-04-17T18:11:37.388Z,99.90
2023-04-17T18:14:07.063Z,99.90
2023-04-17T18:16:37.184Z,99.90
2023-04-17T18:19:05.449Z,99.90
2023-04-17T18:21:33.951Z,99.90
2023-04-17T18:24:03.000Z,99.90
2023-04-17T18:26:31.395Z,99.90
2023-04-17T18:28:59.707Z,99.90
2023-04-17T18:31:29.306Z,99.90
2023-04-17T18:34:02.192Z,99.90
2023-04-17T18:36:30.886Z,99.90
2023-04-17T18:38:59.090Z,99.90
2023-04-17T18:41:27.761Z,99.90
2023-04-17T18:43:55.996Z,99.90
2023-04-17T18:46:26.242Z,99.90
2023-04-17T18:48:56.259Z,99.90
2023-04-17T18:51:24.655Z,99.90
2023-04-17T18:53:52.905Z,99.90
2023-04-17T18:56:21.207Z,99.90
2023-04-17T18:58:49.465Z,99.90
2023-04-17T19:01:17.759Z,99.90
2023-04-17T19:03:46.168Z,99.90
2023-04-17T19:06:15.806Z,99.90
2023-04-17T19:08:44.067Z,99.90
2023-04-17T19:11:12.431Z,99.90
2023-04-17T19:13:42.375Z,99.90
2023-04-17T19:16:11.377Z,99.90
2023-04-17T19:18:39.688Z,99.90
2023-04-17T19:21:08.030Z,99.90
2023-04-17T19:23:38.012Z,99.90
2023-04-17T19:26:06.307Z,99.90
2023-04-17T19:28:34.489Z,99.90
2023-04-17T19:31:04.042Z,99.90
2023-04-17T19:33:34.028Z,99.90
2023-04-17T19:36:03.393Z,99.90
2023-04-17T19:38:32.341Z,99.90
2023-04-17T19:41:17.469Z,99.90
2023-04-17T19:43:46.332Z,99.90
2023-04-17T19:46:15.344Z,99.90
2023-04-17T19:48:44.806Z,99.90
2023-04-17T19:51:14.204Z,99.90
2023-04-17T19:53:44.062Z,99.90
2023-04-17T19:56:13.941Z,99.90
2023-04-17T19:58:43.297Z,99.90
2023-04-17T20:01:11.795Z,99.90
2023-04-17T20:03:42.237Z,99.90
2023-04-17T20:06:10.921Z,99.90
2023-04-17T20:08:39.202Z,99.90
2023-04-17T20:11:07.609Z,99.90
2023-04-17T20:13:37.302Z,99.90
2023-04-17T20:16:06.051Z,99.90
2023-04-17T20:18:35.019Z,99.90
2023-04-17T20:21:03.326Z,99.90
2023-04-17T20:23:31.626Z,99.90
2023-04-17T20:25:59.852Z,99.90
2023-04-17T20:28:29.204Z,99.90
2023-04-17T20:30:58.885Z,99.90
2023-04-17T20:33:27.327Z,99.90
2023-04-17T20:35:55.765Z,99.90
2023-04-17T20:38:24.282Z,99.90
2023-04-17T20:40:52.661Z,99.90
2023-04-17T20:43:21.011Z,99.90
2023-04-17T20:45:49.665Z,99.90
2023-04-17T20:48:19.884Z,99.90
2023-04-17T20:50:48.207Z,99.90
2023-04-17T20:53:16.438Z,99.90
2023-04-17T20:55:46.847Z,99.90
2023-04-17T20:58:15.062Z,99.90
2023-04-17T21:00:57.920Z,99.90
2023-04-17T21:03:31.265Z,99.90
2023-04-17T21:05:59.658Z,99.90
2023-04-17T21:08:27.923Z,99.90
2023-04-17T21:10:56.271Z,99.90
2023-04-17T21:13:24.720Z,99.90
2023-04-17T21:15:53.178Z,99.90
2023-04-17T21:18:21.519Z,99.90
2023-04-17T21:20:51.208Z,99.90
2023-04-17T21:23:19.645Z,99.90
2023-04-17T21:25:48.233Z,99.90
2023-04-17T21:28:16.487Z,99.90
2023-04-17T21:30:44.734Z,99.90
2023-04-17T21:33:13.158Z,99.90
2023-04-17T21:35:41.463Z,99.90
2023-04-17T21:38:11.350Z,99.90
2023-04-17T21:40:50.542Z,99.90
2023-04-17T21:43:20.072Z,99.90
2023-04-17T21:45:48.517Z,99.90
2023-04-17T21:48:16.987Z,99.90
2023-04-17T21:50:45.196Z,99.90
2023-04-17T21:53:14.800Z,99.90
2023-04-17T21:55:43.079Z,99.90
2023-04-17T21:58:11.421Z,99.90
2023-04-17T22:00:39.696Z,99.90
2023-04-17T22:03:08.075Z,99.90
2023-04-17T22:05:37.072Z,99.90
2023-04-17T22:08:05.303Z,99.90
2023-04-17T22:10:35.538Z,99.90
2023-04-17T22:13:03.850Z,99.90
2023-04-17T22:15:32.085Z,99.90
2023-04-17T22:18:00.403Z,99.90
2023-04-17T22:20:29.008Z,99.90
2023-04-17T22:22:57.235Z,99.90
2023-04-17T22:25:25.572Z,99.90
2023-04-17T22:27:55.188Z,99.90
2023-04-17T22:30:23.610Z,99.90
2023-04-17T22:32:52.049Z,99.90
2023-04-17T22:35:20.300Z,99.90
2023-04-17T22:37:48.493Z,99.90
2023-04-17T22:40:16.895Z,99.90
2023-04-17T22:42:45.140Z,99.90
2023-04-17T22:45:14.759Z,99.90
2023-04-17T22:47:43.276Z,99.90
2023-04-17T22:50:14.322Z,99.90
2023-04-17T22:52:42.783Z,99.90
2023-04-17T22:55:11.529Z,99.90
2023-04-17T22:57:39.776Z,99.90
2023-04-17T23:00:10.841Z,99.90
2023-04-17T23:02:40.622Z,99.90
2023-04-17T23:05:10.082Z,99.90
2023-04-17T23:07:38.387Z,99.90
2023-04-17T23:10:07.308Z,99.90
2023-04-17T23:12:35.603Z,99.90
2023-04-17T23:15:04.311Z,99.90
2023-04-17T23:17:33.144Z,99.90
2023-04-17T23:20:04.131Z,99.90
2023-04-17T23:22:32.489Z,99.90
2023-04-17T23:25:00.784Z,99.90
2023-04-17T23:27:29.082Z,99.90
2023-04-17T23:29:59.091Z,99.90
2023-04-17T23:32:27.655Z,99.90
2023-04-17T23:34:55.961Z,99.90
2023-04-17T23:37:25.603Z,99.90
2023-04-17T23:39:53.830Z,99.90
2023-04-17T23:42:22.094Z,99.90
2023-04-17T23:44:50.299Z,99.90
2023-04-17T23:47:18.573Z,99.90
2023-04-17T23:49:47.465Z,99.90
2023-04-17T23:52:15.704Z,99.90
2023-04-17T23:54:45.392Z,99.90
2023-04-17T23:57:13.610Z,99.90
2023-04-17T23:59:41.867Z,99.90
